Webcam

2017/11/24 18:20 EBBR 241820Z VRB01KT 4000 RA BKN021 07/06 Q1012 NOSIG

Webcam

--- Refresh now ---